createdAt,value
2022-09-23T00:02:07.060Z,1.17
2022-09-23T00:04:36.350Z,1.00
2022-09-23T00:07:04.366Z,1.13
2022-09-23T00:09:32.294Z,1.20
2022-09-23T00:12:00.900Z,1.02
2022-09-23T00:14:28.962Z,1.08
2022-09-23T00:16:56.919Z,1.00
2022-09-23T00:19:24.914Z,1.40
2022-09-23T00:21:54.232Z,1.10
2022-09-23T00:24:22.189Z,1.20
2022-09-23T00:26:51.194Z,1.38
2022-09-23T00:29:19.083Z,1.15
2022-09-23T00:31:47.984Z,1.60
2022-09-23T00:34:15.852Z,1.00
2022-09-23T00:36:44.559Z,1.30
2022-09-23T00:39:14.066Z,1.30
2022-09-23T00:41:41.950Z,1.20
2022-09-23T00:44:41.933Z,1.23
2022-09-23T00:47:15.967Z,0.95
2022-09-23T00:49:46.538Z,1.30
2022-09-23T00:52:19.254Z,1.05
2022-09-23T00:54:49.280Z,1.00
2022-09-23T00:57:20.017Z,1.30
2022-09-23T00:59:50.337Z,1.35
2022-09-23T01:02:21.097Z,1.40
2022-09-23T01:04:50.366Z,1.08
2022-09-23T01:07:18.352Z,1.30
2022-09-23T01:09:49.583Z,1.23
2022-09-23T01:12:31.188Z,1.20
2022-09-23T01:15:11.888Z,1.27
2022-09-23T01:17:47.751Z,1.10
2022-09-23T01:20:39.958Z,1.10
2022-09-23T01:23:23.349Z,1.48
2022-09-23T01:26:08.337Z,1.40
2022-09-23T01:28:58.355Z,1.20
2022-09-23T01:31:35.918Z,1.25
2022-09-23T01:34:12.885Z,1.45
2022-09-23T01:36:44.078Z,1.25
2022-09-23T01:39:18.373Z,1.27
2022-09-23T01:41:53.289Z,1.30
2022-09-23T01:44:29.338Z,1.35
2022-09-23T01:47:03.300Z,1.38
2022-09-23T01:49:38.432Z,1.15
2022-09-23T01:52:11.216Z,1.17
2022-09-23T01:54:42.526Z,1.42
2022-09-23T01:57:16.771Z,1.10
2022-09-23T01:59:49.237Z,1.30
2022-09-23T02:02:22.127Z,1.33
2022-09-23T02:04:54.397Z,1.63
2022-09-23T02:07:28.598Z,1.08
2022-09-23T02:10:01.888Z,1.30
2022-09-23T02:12:34.984Z,1.10
2022-09-23T02:15:08.987Z,1.25
2022-09-23T02:17:46.385Z,1.42
2022-09-23T02:20:21.036Z,1.23
2022-09-23T02:22:57.542Z,1.45
2022-09-23T02:25:34.098Z,1.30
2022-09-23T02:28:10.069Z,1.40
2022-09-23T02:30:46.428Z,1.40
2022-09-23T02:33:23.177Z,1.50
2022-09-23T02:35:56.360Z,1.60
2022-09-23T02:38:34.674Z,1.20
2022-09-23T02:41:09.563Z,1.60
2022-09-23T02:43:44.619Z,1.20
2022-09-23T02:46:12.905Z,1.33
2022-09-23T02:48:47.473Z,1.40
2022-09-23T02:51:16.010Z,1.75
2022-09-23T02:53:45.856Z,1.60
2022-09-23T02:56:16.900Z,1.50
2022-09-23T02:58:46.967Z,1.52
2022-09-23T03:01:27.103Z,1.27
2022-09-23T03:04:06.848Z,1.98
2022-09-23T03:06:43.439Z,1.40
2022-09-23T03:09:18.898Z,1.63
2022-09-23T03:11:54.232Z,1.45
2022-09-23T03:14:31.588Z,1.50
2022-09-23T03:17:04.662Z,1.60
2022-09-23T03:19:42.389Z,1.55
2022-09-23T03:22:14.236Z,1.73
2022-09-23T03:24:47.447Z,1.52
2022-09-23T03:27:21.293Z,1.70
2022-09-23T03:29:51.107Z,1.67
2022-09-23T03:32:21.908Z,1.67
2022-09-23T03:34:53.410Z,1.58
2022-09-23T03:37:27.126Z,1.92
2022-09-23T03:39:59.826Z,1.50
2022-09-23T03:42:31.755Z,1.83
2022-09-23T03:45:01.406Z,1.90
2022-09-23T03:47:31.111Z,1.55
2022-09-23T03:50:00.334Z,1.70
2022-09-23T03:52:28.713Z,2.13
2022-09-23T03:54:56.685Z,1.80
2022-09-23T03:57:25.788Z,1.80
2022-09-23T03:59:54.469Z,1.60
2022-09-23T04:02:22.477Z,1.70
2022-09-23T04:04:50.633Z,1.90
2022-09-23T04:07:20.051Z,1.98
2022-09-23T04:09:47.990Z,1.88
2022-09-23T04:12:17.593Z,2.22
2022-09-23T04:14:46.199Z,2.10
2022-09-23T04:17:14.450Z,2.10
2022-09-23T04:19:42.561Z,1.95
2022-09-23T04:22:11.038Z,1.92
2022-09-23T04:24:40.496Z,2.10
2022-09-23T04:27:08.451Z,2.25
2022-09-23T04:29:36.348Z,1.95
2022-09-23T04:32:04.317Z,2.13
2022-09-23T04:34:32.172Z,2.08
2022-09-23T04:37:00.085Z,2.28
2022-09-23T04:39:28.037Z,2.05
2022-09-23T04:41:57.209Z,1.90
2022-09-23T04:44:25.730Z,2.00
2022-09-23T04:46:53.680Z,1.90
2022-09-23T04:49:21.878Z,2.08
2022-09-23T04:51:49.830Z,2.08
2022-09-23T04:54:17.841Z,1.92
2022-09-23T04:56:45.770Z,1.75
2022-09-23T04:59:15.319Z,1.67
2022-09-23T05:01:43.767Z,1.85
2022-09-23T05:04:14.103Z,2.20
2022-09-23T05:06:44.134Z,2.25
2022-09-23T05:09:16.701Z,1.80
2022-09-23T05:11:45.140Z,2.35
2022-09-23T05:14:14.794Z,2.08
2022-09-23T05:16:42.780Z,2.05
2022-09-23T05:19:11.904Z,2.03
2022-09-23T05:21:40.274Z,2.00
2022-09-23T05:24:08.831Z,1.80
2022-09-23T05:26:36.801Z,1.80
2022-09-23T05:29:05.223Z,1.75
2022-09-23T05:31:34.815Z,2.28
2022-09-23T05:34:04.852Z,2.40
2022-09-23T05:36:37.934Z,1.90
2022-09-23T05:39:08.269Z,2.58
2022-09-23T05:41:37.440Z,2.15
2022-09-23T05:44:05.575Z,1.80
2022-09-23T05:46:35.358Z,1.92
2022-09-23T05:49:04.372Z,2.30
2022-09-23T05:51:34.914Z,2.08
2022-09-23T05:54:04.497Z,2.17
2022-09-23T05:56:34.478Z,2.28
2022-09-23T05:59:03.553Z,1.83
2022-09-23T06:01:37.113Z,2.00
2022-09-23T06:04:07.725Z,1.98
2022-09-23T06:06:38.240Z,1.90
2022-09-23T06:09:07.067Z,1.83
2022-09-23T06:11:38.003Z,2.05
2022-09-23T06:14:06.616Z,1.90
2022-09-23T06:16:36.929Z,2.63
2022-09-23T06:19:06.986Z,2.20
2022-09-23T06:21:37.106Z,1.92
2022-09-23T06:24:06.668Z,2.00
2022-09-23T06:26:35.265Z,2.40
2022-09-23T06:29:04.412Z,2.00
2022-09-23T06:31:33.119Z,2.38
2022-09-23T06:34:11.090Z,2.15
2022-09-23T06:36:44.518Z,2.20
2022-09-23T06:39:14.251Z,2.35
2022-09-23T06:41:42.911Z,2.10
2022-09-23T06:44:11.051Z,2.00
2022-09-23T06:46:39.223Z,2.03
2022-09-23T06:49:08.764Z,2.30
2022-09-23T06:51:36.811Z,2.10
2022-09-23T06:54:04.809Z,1.85
2022-09-23T06:56:38.017Z,2.60
2022-09-23T06:59:07.683Z,1.98
2022-09-23T07:01:35.845Z,1.65
2022-09-23T07:04:03.858Z,1.80
2022-09-23T07:06:33.174Z,1.45
2022-09-23T07:09:01.275Z,1.90
2022-09-23T07:11:29.094Z,1.88
2022-09-23T07:13:56.977Z,2.03
2022-09-23T07:16:25.147Z,1.73
2022-09-23T07:18:53.583Z,1.83
2022-09-23T07:21:21.721Z,1.70
2022-09-23T07:23:52.172Z,2.05
2022-09-23T07:26:21.202Z,1.70
2022-09-23T07:28:49.040Z,1.85
2022-09-23T07:31:29.927Z,1.77
2022-09-23T07:34:01.477Z,1.75
2022-09-23T07:36:32.967Z,1.63
2022-09-23T07:39:03.736Z,1.75
2022-09-23T07:41:32.715Z,1.60
2022-09-23T07:44:01.307Z,1.75
2022-09-23T07:46:31.709Z,1.80
2022-09-23T07:48:59.809Z,1.73
2022-09-23T07:51:35.471Z,2.20
2022-09-23T07:54:08.102Z,1.50
2022-09-23T07:56:37.135Z,1.80
2022-09-23T07:59:05.462Z,2.47
2022-09-23T08:01:35.990Z,2.00
2022-09-23T08:04:06.122Z,1.40
2022-09-23T08:06:34.702Z,1.80
2022-09-23T08:09:03.123Z,2.60
2022-09-23T08:11:33.081Z,2.10
2022-09-23T08:14:01.036Z,2.10
2022-09-23T08:16:29.344Z,1.98
2022-09-23T08:18:57.373Z,1.90
2022-09-23T08:21:25.340Z,2.00
2022-09-23T08:23:53.331Z,1.80
2022-09-23T08:26:22.444Z,1.70
2022-09-23T08:28:53.976Z,2.22
2022-09-23T08:31:22.165Z,2.10
2022-09-23T08:33:55.611Z,1.65
2022-09-23T08:36:23.768Z,2.10
2022-09-23T08:38:51.669Z,2.03
2022-09-23T08:41:28.197Z,1.98
2022-09-23T08:44:02.349Z,1.90
2022-09-23T08:46:37.402Z,2.00
2022-09-23T08:49:07.495Z,1.95
2022-09-23T08:51:42.592Z,2.00
2022-09-23T08:54:11.345Z,1.85
2022-09-23T08:56:40.283Z,1.90
2022-09-23T08:59:15.989Z,1.80
2022-09-23T09:01:46.714Z,1.52
2022-09-23T09:04:19.238Z,1.67
2022-09-23T09:06:54.112Z,1.90
2022-09-23T09:09:29.939Z,1.90
2022-09-23T09:12:04.874Z,2.13
2022-09-23T09:14:40.688Z,1.63
2022-09-23T09:17:13.954Z,2.00
2022-09-23T09:19:55.474Z,1.80
2022-09-23T09:25:21.410Z,1.58
2022-09-23T09:27:49.585Z,1.60
2022-09-23T09:30:20.592Z,1.67
2022-09-23T09:32:52.316Z,1.73
2022-09-23T09:35:29.173Z,1.65
2022-09-23T09:37:57.605Z,1.45
2022-09-23T09:40:25.671Z,1.50
2022-09-23T09:42:53.592Z,1.75
2022-09-23T09:45:33.599Z,1.88
2022-09-23T09:48:07.780Z,1.73
2022-09-23T09:50:49.321Z,1.80
2022-09-23T09:53:25.641Z,1.50
2022-09-23T09:56:05.259Z,1.33
2022-09-23T09:58:45.319Z,1.38
2022-09-23T10:01:22.226Z,1.70
2022-09-23T10:03:55.593Z,1.23
2022-09-23T10:06:28.717Z,1.08
2022-09-23T10:09:17.013Z,1.63
2022-09-23T10:12:05.200Z,1.35
2022-09-23T10:14:33.232Z,1.20
2022-09-23T10:17:07.867Z,1.23
2022-09-23T10:19:38.065Z,1.08
2022-09-23T10:22:16.295Z,1.13
2022-09-23T10:24:50.862Z,0.65
2022-09-23T10:27:28.512Z,0.90
2022-09-23T10:29:59.083Z,0.80
2022-09-23T10:32:31.605Z,0.65
2022-09-23T10:35:03.488Z,1.00
2022-09-23T10:37:38.696Z,1.20
2022-09-23T10:40:38.148Z,0.80
2022-09-23T10:43:41.451Z,0.73
2022-09-23T10:46:35.395Z,1.52
2022-09-23T10:49:22.338Z,0.85
2022-09-23T10:52:02.460Z,0.90
2022-09-23T10:54:42.794Z,0.70
2022-09-23T10:57:41.240Z,0.88
2022-09-23T11:00:23.520Z,0.93
2022-09-23T11:03:17.560Z,1.30
2022-09-23T11:05:58.191Z,0.70
2022-09-23T11:08:44.809Z,0.75
2022-09-23T11:11:29.212Z,0.70
2022-09-23T11:14:17.172Z,1.08
2022-09-23T11:17:05.971Z,1.00
2022-09-23T11:20:05.291Z,0.70
2022-09-23T11:22:53.326Z,0.77
2022-09-23T11:25:37.442Z,0.88
2022-09-23T11:28:31.767Z,1.02
2022-09-23T11:31:12.569Z,0.80
2022-09-23T11:33:53.715Z,0.95
2022-09-23T11:36:28.008Z,1.00
2022-09-23T11:39:02.002Z,1.10
2022-09-23T11:41:32.397Z,0.70
2022-09-23T11:44:08.761Z,0.90
2022-09-23T11:46:43.230Z,0.85
2022-09-23T11:49:17.191Z,1.10
2022-09-23T11:51:53.860Z,1.00
2022-09-23T11:54:27.854Z,0.60
2022-09-23T11:56:59.653Z,0.60
2022-09-23T11:59:40.667Z,0.70
2022-09-23T12:02:22.939Z,1.00
2022-09-23T12:05:01.522Z,0.70
2022-09-23T12:07:35.959Z,0.70
2022-09-23T12:10:08.188Z,0.80
2022-09-23T12:12:42.264Z,0.80
2022-09-23T12:15:18.842Z,0.70
2022-09-23T12:18:19.644Z,0.63
2022-09-23T12:21:05.611Z,1.00
2022-09-23T12:23:52.336Z,1.00
2022-09-23T12:26:25.272Z,0.60
2022-09-23T12:28:56.574Z,0.73
2022-09-23T12:31:30.858Z,0.77
2022-09-23T12:34:00.629Z,0.82
2022-09-23T12:36:34.949Z,0.60
2022-09-23T12:39:05.763Z,1.00
2022-09-23T12:41:38.198Z,0.90
2022-09-23T12:44:29.586Z,0.73
2022-09-23T12:47:38.031Z,0.70
2022-09-23T12:50:39.044Z,1.10
2022-09-23T12:53:46.456Z,0.77
2022-09-23T12:56:18.460Z,0.88
2022-09-23T12:59:11.311Z,0.90
2022-09-23T13:01:39.984Z,0.88
2022-09-23T13:04:45.686Z,0.70
2022-09-23T13:07:17.927Z,0.63
2022-09-23T13:09:50.834Z,0.65
2022-09-23T13:12:24.775Z,0.93
2022-09-23T13:14:58.298Z,1.00
2022-09-23T13:17:32.105Z,0.50
2022-09-23T13:20:02.802Z,0.80
2022-09-23T13:23:05.927Z,0.80
2022-09-23T13:25:40.552Z,0.70
2022-09-23T13:28:22.529Z,0.80
2022-09-23T13:30:52.482Z,0.60
2022-09-23T13:33:29.716Z,0.70
2022-09-23T13:36:02.793Z,0.85
2022-09-23T13:38:32.686Z,0.70
2022-09-23T13:41:04.772Z,0.70
2022-09-23T13:43:41.467Z,0.75
2022-09-23T13:46:15.131Z,0.82
2022-09-23T13:48:45.775Z,0.75
2022-09-23T13:51:22.075Z,0.98
2022-09-23T13:53:55.265Z,0.73
2022-09-23T13:56:24.251Z,0.60
2022-09-23T13:58:52.577Z,0.70
2022-09-23T14:01:31.559Z,0.90
2022-09-23T14:03:59.668Z,0.80
2022-09-23T14:06:28.304Z,0.90
2022-09-23T14:08:59.860Z,0.60
2022-09-23T14:11:32.066Z,0.95
2022-09-23T14:14:06.897Z,0.88
2022-09-23T14:16:39.268Z,0.98
2022-09-23T14:19:08.178Z,1.30
2022-09-23T14:21:37.739Z,0.70
2022-09-23T14:24:18.376Z,0.82
2022-09-23T14:26:48.762Z,3.83
2022-09-23T14:29:19.491Z,1.80
2022-09-23T14:31:57.070Z,1.30
2022-09-23T14:34:44.452Z,1.13
2022-09-23T14:37:41.514Z,0.82
2022-09-23T14:40:18.015Z,0.80
2022-09-23T14:42:48.981Z,0.95
2022-09-23T14:45:20.817Z,1.02
2022-09-23T14:47:52.927Z,0.70
2022-09-23T14:50:40.011Z,0.70
2022-09-23T14:53:40.435Z,0.73
2022-09-23T14:56:20.630Z,0.70
2022-09-23T14:58:53.090Z,0.77
2022-09-23T15:01:39.556Z,0.70
2022-09-23T15:04:15.330Z,0.70
2022-09-23T15:06:49.225Z,0.70
2022-09-23T15:09:23.747Z,0.90
2022-09-23T15:11:59.039Z,0.60
2022-09-23T15:14:40.997Z,0.68
2022-09-23T15:17:30.286Z,0.80
2022-09-23T15:20:03.268Z,0.57
2022-09-23T15:22:31.226Z,1.20
2022-09-23T15:25:16.311Z,0.80
2022-09-23T15:27:57.573Z,1.08
2022-09-23T15:30:25.617Z,0.90
2022-09-23T15:32:53.833Z,0.77
2022-09-23T15:35:26.869Z,0.60
2022-09-23T15:37:58.272Z,0.77
2022-09-23T15:40:28.383Z,1.63
2022-09-23T15:42:58.697Z,3.35
2022-09-23T15:45:34.492Z,2.38
2022-09-23T15:48:09.005Z,2.63
2022-09-23T15:50:39.754Z,0.85
2022-09-23T15:53:08.421Z,1.17
2022-09-23T15:55:36.224Z,4.03
2022-09-23T15:58:04.362Z,1.55
2022-09-23T16:00:34.789Z,1.27
2022-09-23T16:03:02.722Z,1.20
2022-09-23T16:05:37.058Z,0.95
2022-09-23T16:08:09.262Z,1.17
2022-09-23T16:10:38.590Z,1.08
2022-09-23T16:13:11.423Z,1.15
2022-09-23T16:15:40.123Z,1.02
2022-09-23T16:18:08.642Z,1.10
2022-09-23T16:20:38.408Z,1.25
2022-09-23T16:23:15.187Z,1.15
2022-09-23T16:25:44.500Z,1.10
2022-09-23T16:28:12.646Z,1.20
2022-09-23T16:30:40.936Z,1.38
2022-09-23T16:33:08.735Z,1.10
2022-09-23T16:35:38.840Z,1.10
2022-09-23T16:38:08.309Z,1.30
2022-09-23T16:40:42.368Z,1.40
2022-09-23T16:43:13.025Z,1.50
2022-09-23T16:45:41.169Z,1.50
2022-09-23T16:48:12.543Z,1.60
2022-09-23T16:50:43.693Z,1.60
2022-09-23T16:53:16.386Z,1.23
2022-09-23T16:55:44.415Z,2.50
2022-09-23T16:58:12.474Z,1.73
2022-09-23T17:00:58.025Z,1.17
2022-09-23T17:03:41.274Z,1.23
2022-09-23T17:06:12.462Z,1.27
2022-09-23T17:08:42.870Z,1.17
2022-09-23T17:11:11.886Z,1.40
2022-09-23T17:13:42.629Z,1.40
2022-09-23T17:16:11.965Z,1.73
2022-09-23T17:18:40.010Z,1.40
2022-09-23T17:21:09.161Z,1.73
2022-09-23T17:23:38.234Z,1.60
2022-09-23T17:26:09.946Z,1.63
2022-09-23T17:28:37.874Z,1.50
2022-09-23T17:31:08.872Z,1.85
2022-09-23T17:33:38.827Z,1.80
2022-09-23T17:36:08.875Z,1.70
2022-09-23T17:38:39.386Z,1.95
2022-09-23T17:41:09.523Z,2.00
2022-09-23T17:43:38.513Z,2.22
2022-09-23T17:46:10.386Z,2.22
2022-09-23T17:48:41.479Z,2.15
2022-09-23T17:51:14.353Z,2.30
2022-09-23T17:53:45.101Z,2.17
2022-09-23T17:56:16.496Z,2.47
2022-09-23T17:58:46.076Z,2.25
2022-09-23T18:01:15.555Z,2.83
2022-09-23T18:03:44.493Z,2.53
2022-09-23T18:06:14.401Z,2.63
2022-09-23T18:08:43.712Z,2.40
2022-09-23T18:11:17.999Z,2.95
2022-09-23T18:13:49.631Z,2.60
2022-09-23T18:16:18.191Z,2.90
2022-09-23T18:18:50.505Z,2.80
2022-09-23T18:21:19.671Z,2.67
2022-09-23T18:23:47.677Z,2.90
2022-09-23T18:26:18.006Z,3.20
2022-09-23T18:28:46.199Z,2.55
2022-09-23T18:31:14.111Z,2.60
2022-09-23T18:33:42.247Z,3.60
2022-09-23T18:36:10.651Z,3.00
2022-09-23T18:38:38.807Z,3.13
2022-09-23T18:41:08.380Z,3.00
2022-09-23T18:43:42.273Z,3.70
2022-09-23T18:46:15.497Z,3.47
2022-09-23T18:49:02.110Z,3.30
2022-09-23T18:51:32.126Z,3.75
2022-09-23T18:54:02.418Z,3.58
2022-09-23T18:56:33.552Z,3.58
2022-09-23T18:59:03.060Z,3.63
2022-09-23T19:01:31.048Z,3.80
2022-09-23T19:04:02.147Z,3.72
2022-09-23T19:06:31.121Z,3.90
2022-09-23T19:08:59.513Z,4.15
2022-09-23T19:11:27.449Z,4.00
2022-09-23T19:13:56.600Z,4.00
2022-09-23T19:16:27.245Z,4.07
2022-09-23T19:18:56.814Z,4.22
2022-09-23T19:21:25.024Z,4.97
2022-09-23T19:23:54.792Z,4.57
2022-09-23T19:26:24.905Z,4.43
2022-09-23T19:28:54.909Z,4.80
2022-09-23T19:31:26.434Z,4.63
2022-09-23T19:33:56.698Z,4.85
2022-09-23T19:36:27.051Z,4.63
2022-09-23T19:38:56.475Z,5.10
2022-09-23T19:41:28.174Z,4.95
2022-09-23T19:44:03.522Z,5.20
2022-09-23T19:46:34.584Z,5.10
2022-09-23T19:49:03.798Z,4.95
2022-09-23T19:51:34.070Z,5.55
2022-09-23T19:54:02.790Z,5.10
2022-09-23T19:56:32.001Z,4.80
2022-09-23T19:59:03.057Z,5.82
2022-09-23T20:01:32.847Z,5.13
2022-09-23T20:04:01.144Z,5.25
2022-09-23T20:06:31.306Z,5.70
2022-09-23T20:09:00.780Z,5.18
2022-09-23T20:11:29.292Z,5.45
2022-09-23T20:14:01.326Z,4.65
2022-09-23T20:16:32.376Z,5.50
2022-09-23T20:19:04.234Z,5.55
2022-09-23T20:21:33.521Z,5.68
2022-09-23T20:24:01.959Z,5.53
2022-09-23T20:26:47.280Z,5.57
2022-09-23T20:29:15.526Z,5.88
2022-09-23T20:31:43.612Z,4.68
2022-09-23T20:34:12.973Z,5.30
2022-09-23T20:36:42.328Z,4.97
2022-09-23T20:39:11.023Z,5.07
2022-09-23T20:41:39.907Z,4.57
2022-09-23T20:44:12.604Z,5.32
2022-09-23T20:46:47.537Z,4.55
2022-09-23T20:49:18.418Z,4.43
2022-09-23T20:51:48.298Z,4.82
2022-09-23T20:54:16.462Z,5.25
2022-09-23T20:56:44.372Z,4.70
2022-09-23T20:59:15.109Z,5.22
2022-09-23T21:01:43.665Z,4.78
2022-09-23T21:04:11.815Z,5.35
2022-09-23T21:06:42.928Z,4.50
2022-09-23T21:09:10.985Z,4.68
2022-09-23T21:11:38.969Z,4.63
2022-09-23T21:14:07.329Z,5.45
2022-09-23T21:16:35.519Z,4.93
2022-09-23T21:19:04.091Z,4.68
2022-09-23T21:21:32.236Z,5.03
2022-09-23T21:24:23.710Z,4.55
2022-09-23T21:26:50.573Z,4.80
2022-09-23T21:29:19.123Z,4.43
2022-09-23T21:31:49.746Z,4.57
2022-09-23T21:34:17.930Z,4.80
2022-09-23T21:36:46.305Z,4.63
2022-09-23T21:39:15.565Z,5.00
2022-09-23T21:41:43.601Z,3.97
2022-09-23T21:44:12.028Z,4.65
2022-09-23T21:46:39.967Z,4.43
2022-09-23T21:49:09.404Z,4.50
2022-09-23T21:51:40.777Z,4.85
2022-09-23T21:54:13.175Z,4.43
2022-09-23T21:56:43.116Z,4.45
2022-09-23T21:59:11.485Z,4.60
2022-09-23T22:01:44.648Z,4.70
2022-09-23T22:04:16.296Z,4.88
2022-09-23T22:06:44.811Z,5.80
2022-09-23T22:09:17.185Z,5.43
2022-09-23T22:12:04.746Z,4.78
2022-09-23T22:14:33.141Z,5.10
2022-09-23T22:17:02.637Z,5.18
2022-09-23T22:19:35.688Z,5.35
2022-09-23T22:22:08.544Z,4.97
2022-09-23T22:24:36.518Z,5.18
2022-09-23T22:27:05.947Z,4.65
2022-09-23T22:29:51.645Z,5.20
2022-09-23T22:32:37.442Z,5.18
2022-09-23T22:35:06.228Z,5.18
2022-09-23T22:37:36.238Z,5.85
2022-09-23T22:40:06.100Z,4.82
2022-09-23T22:42:36.648Z,4.80
2022-09-23T22:45:05.796Z,5.43
2022-09-23T22:47:35.764Z,5.68
2022-09-23T22:50:04.435Z,5.57
2022-09-23T22:52:33.439Z,5.75
2022-09-23T22:55:01.445Z,5.40
2022-09-23T22:57:29.479Z,5.40
2022-09-23T22:59:58.670Z,5.75
2022-09-23T23:02:26.675Z,5.05
2022-09-23T23:04:56.257Z,5.10
2022-09-23T23:07:24.988Z,5.22
2022-09-23T23:09:53.879Z,5.65
2022-09-23T23:12:22.478Z,5.70
2022-09-23T23:14:50.701Z,5.75
2022-09-23T23:17:19.973Z,5.60
2022-09-23T23:19:50.205Z,5.45
2022-09-23T23:22:18.042Z,5.50
2022-09-23T23:24:45.997Z,6.00
2022-09-23T23:27:13.981Z,5.68
2022-09-23T23:29:41.855Z,5.10
2022-09-23T23:32:09.946Z,5.38
2022-09-23T23:34:39.571Z,5.93
2022-09-23T23:37:07.413Z,5.93
2022-09-23T23:39:35.584Z,6.80
2022-09-23T23:42:04.994Z,5.95
2022-09-23T23:44:34.542Z,5.75
2022-09-23T23:47:02.526Z,5.60
2022-09-23T23:49:30.742Z,5.53
2022-09-23T23:52:00.004Z,5.07
2022-09-23T23:54:27.854Z,5.47
2022-09-23T23:56:55.885Z,5.28
2022-09-23T23:59:24.322Z,5.35
